Dong Fang You 2 — BXEC — position and weather

sailwx.info

Track history (hours):
 
Tides and Currents Weather Stations Pressure Air Temp Water Temp Dewpoint Dewpoint Depression Visibility Wind Speed Wind Dir Waves Ship Positions

Dong Fang You 2

Last reported at 2015-May-22 10:34 UTC. Time now 2015-May-24 19:10 UTC.
Position N 20°10' E 110°18'.

Length 82 m; draft 4.4 m.

Type: Tanker. MMSI: 412464680.

Date/timePositionNaut miles runAvg speedWind from/ knotsBaromVisibWave heightAir tempDewpointWater temp
2015-May-22 10:34N 20°10' E 110°18'3 0.1
2015-May-20 17:05N 20°11' E 110°15'  
2015-May-17 02:29N 21°52' E 113°13'2 1.8
2015-May-17 01:20N 21°54' E 113°14'0 0.1
2015-May-17 00:32N 21°54' E 113°14'0 0.1
2015-May-16 23:32N 21°54' E 113°14'0 0.0
2015-May-16 22:32N 21°54' E 113°14'0 0.1
2015-May-16 21:32N 21°54' E 113°14'0 0.1
2015-May-16 20:26N 21°54' E 113°14'0 0.0
2015-May-16 19:32N 21°54' E 113°14'0 0.0
2015-May-16 17:08N 21°54' E 113°14'0 0.1
2015-May-16 16:14N 21°54' E 113°14'0 0.0
2015-May-16 15:20N 21°54' E 113°14'0 0.0
2015-May-16 09:26N 21°54' E 113°14'0 0.0
2015-May-16 04:33N 21°54' E 113°14'0 0.0
2015-May-16 03:33N 21°54' E 113°14'0 0.0
2015-May-16 02:32N 21°54' E 113°14'3 2.8
2015-May-16 01:33N 21°51' E 113°15'27 2.6
2015-May-15 15:26N 22°04' E 113°40'8 9.3
2015-May-15 14:33N 22°10' E 113°45'43 8.7
2015-May-15 09:33N 22°52' E 113°34'4 3.2
2015-May-15 08:17N 22°56' E 113°33'0 0.0
2015-May-15 07:23N 22°56' E 113°33'0 0.0
2015-May-15 06:29N 22°56' E 113°33'0 0.0
2015-May-15 05:11N 22°56' E 113°33'0 0.0
2015-May-15 04:23N 22°56' E 113°33'0 0.0
2015-May-15 03:29N 22°56' E 113°33'0 0.0
2015-May-15 02:30N 22°56' E 113°33'0 0.0
2015-May-15 01:23N 22°56' E 113°33'0 0.0
2015-May-15 00:23N 22°56' E 113°33'0 0.0
2015-May-14 23:23N 22°56' E 113°33'0 0.0
2015-May-14 21:29N 22°56' E 113°33'0 0.0
2015-May-14 20:17N 22°56' E 113°33'0 0.0
2015-May-14 19:17N 22°56' E 113°33'0 0.0
2015-May-14 18:29N 22°56' E 113°33'0 0.0
2015-May-14 17:29N 22°56' E 113°33'0 0.0
2015-May-14 16:11N 22°56' E 113°33'0 0.0
2015-May-14 15:23N 22°56' E 113°33'0 0.0
2015-May-14 14:23N 22°56' E 113°33'0 0.0
2015-May-14 13:23N 22°56' E 113°33'0 0.0
2015-May-14 12:23N 22°56' E 113°33'0 0.0
2015-May-14 11:17N 22°56' E 113°33'0 0.0
2015-May-14 10:23N 22°56' E 113°33'0 0.0
2015-May-14 09:23N 22°56' E 113°33'0 0.0
2015-May-14 08:23N 22°56' E 113°33'0 0.0
2015-May-14 07:29N 22°56' E 113°33'0 0.0
2015-May-14 06:17N 22°56' E 113°33'0 0.0
2015-May-14 05:23N 22°56' E 113°33'0 0.0
2015-May-14 04:29N 22°56' E 113°33'0 0.0
2015-May-14 03:29N 22°56' E 113°33'0 0.0
2015-May-14 02:32N 22°56' E 113°33'4 4.2
2015-May-14 01:32N 22°52' E 113°34'37 9.4
2015-May-13 21:33N 22°17' E 113°48'1010.2
2015-May-13 20:33N 22°08' E 113°45'  
Track history (hours):
 
Tides and Currents Weather Stations Pressure Air Temp Water Temp Dewpoint Dewpoint Depression Visibility Wind Speed Wind Dir Waves Ship Positions

Dong Fang You 2

Last reported at 2015-May-22 10:34 UTC. Time now 2015-May-24 19:10 UTC.
Position N 20°10' E 110°18'.

Length 82 m; draft 4.4 m.

Type: Tanker. MMSI: 412464680.

Date/timePositionNaut miles runAvg speedWind from/ knotsBaromVisibWave heightAir tempDewpointWater temp
2015-May-22 10:34N 20°10' E 110°18'3 0.1
2015-May-20 17:05N 20°11' E 110°15'  
2015-May-17 02:29N 21°52' E 113°13'2 1.8
2015-May-17 01:20N 21°54' E 113°14'0 0.1
2015-May-17 00:32N 21°54' E 113°14'0 0.1
2015-May-16 23:32N 21°54' E 113°14'0 0.0
2015-May-16 22:32N 21°54' E 113°14'0 0.1
2015-May-16 21:32N 21°54' E 113°14'0 0.1
2015-May-16 20:26N 21°54' E 113°14'0 0.0
2015-May-16 19:32N 21°54' E 113°14'0 0.0
2015-May-16 17:08N 21°54' E 113°14'0 0.1
2015-May-16 16:14N 21°54' E 113°14'0 0.0
2015-May-16 15:20N 21°54' E 113°14'0 0.0
2015-May-16 09:26N 21°54' E 113°14'0 0.0
2015-May-16 04:33N 21°54' E 113°14'0 0.0
2015-May-16 03:33N 21°54' E 113°14'0 0.0
2015-May-16 02:32N 21°54' E 113°14'3 2.8
2015-May-16 01:33N 21°51' E 113°15'27 2.6
2015-May-15 15:26N 22°04' E 113°40'8 9.3
2015-May-15 14:33N 22°10' E 113°45'43 8.7
2015-May-15 09:33N 22°52' E 113°34'4 3.2
2015-May-15 08:17N 22°56' E 113°33'0 0.0
2015-May-15 07:23N 22°56' E 113°33'0 0.0
2015-May-15 06:29N 22°56' E 113°33'0 0.0
2015-May-15 05:11N 22°56' E 113°33'0 0.0
2015-May-15 04:23N 22°56' E 113°33'0 0.0
2015-May-15 03:29N 22°56' E 113°33'0 0.0
2015-May-15 02:30N 22°56' E 113°33'0 0.0
2015-May-15 01:23N 22°56' E 113°33'0 0.0
2015-May-15 00:23N 22°56' E 113°33'0 0.0
2015-May-14 23:23N 22°56' E 113°33'0 0.0
2015-May-14 21:29N 22°56' E 113°33'0 0.0
2015-May-14 20:17N 22°56' E 113°33'0 0.0
2015-May-14 19:17N 22°56' E 113°33'0 0.0
2015-May-14 18:29N 22°56' E 113°33'0 0.0
2015-May-14 17:29N 22°56' E 113°33'0 0.0
2015-May-14 16:11N 22°56' E 113°33'0 0.0
2015-May-14 15:23N 22°56' E 113°33'0 0.0
2015-May-14 14:23N 22°56' E 113°33'0 0.0
2015-May-14 13:23N 22°56' E 113°33'0 0.0
2015-May-14 12:23N 22°56' E 113°33'0 0.0
2015-May-14 11:17N 22°56' E 113°33'0 0.0
2015-May-14 10:23N 22°56' E 113°33'0 0.0
2015-May-14 09:23N 22°56' E 113°33'0 0.0
2015-May-14 08:23N 22°56' E 113°33'0 0.0
2015-May-14 07:29N 22°56' E 113°33'0 0.0
2015-May-14 06:17N 22°56' E 113°33'0 0.0
2015-May-14 05:23N 22°56' E 113°33'0 0.0
2015-May-14 04:29N 22°56' E 113°33'0 0.0
2015-May-14 03:29N 22°56' E 113°33'0 0.0
2015-May-14 02:32N 22°56' E 113°33'4 4.2
2015-May-14 01:32N 22°52' E 113°34'37 9.4
2015-May-13 21:33N 22°17' E 113°48'1010.2
2015-May-13 20:33N 22°08' E 113°45'  

Dump ship's entire track history